This is the latest recevied weather packets stored in our database for station/object EA4BCR. If no packets are shown the sender has not sent any weather packets the latest 10 day(s).
| Time | Temp. | Humidity | Pressure | Rain* | Wind** | Luminosity | Snow |
|---|---|---|---|---|---|---|---|
| 1787818814 | 20.56° C | 70% | 1012.6 hPa | - | - | - | - |
| 1787818214 | 20° C | 74% | 1012.9 hPa | - | - | - | - |
| 1787817614 | 20° C | 73% | 1012.8 hPa | - | - | - | - |
| 1787817014 | 19.44° C | 77% | 1013.1 hPa | - | - | - | - |
| 1787816414 | 19.44° C | 73% | 1013 hPa | - | - | - | - |
| 1787815814 | 18.33° C | 78% | 1013.5 hPa | - | - | - | - |
| 1787815214 | 18.33° C | 77% | 1013.5 hPa | - | - | - | - |
| 1787814614 | 17.78° C | 77% | 1013.7 hPa | - | - | - | - |
| 1787814014 | 18.33° C | 73% | 1013.2 hPa | - | - | - | - |
| 1787813414 | 17.78° C | 67% | 1013.3 hPa | - | - | - | - |
| 1787812814 | 17.78° C | 61% | 1013.3 hPa | - | - | - | - |
| 1787812214 | 17.22° C | 55% | 1013.4 hPa | - | - | - | - |
| 1787811614 | 17.22° C | 56% | 1013.5 hPa | - | - | - | - |
| 1787811014 | 17.22° C | 61% | 1013.4 hPa | - | - | - | - |
| 1787810414 | 17.22° C | 57% | 1013.3 hPa | - | - | - | - |
| 1787809814 | 16.67° C | 57% | 1013.4 hPa | - | - | - | - |
| 1787809214 | 16.11° C | 56% | 1013.5 hPa | - | - | - | - |
| 1787808614 | 16.11° C | 54% | 1013.3 hPa | - | - | - | - |
| 1787808014 | 16.11° C | 55% | 1013.3 hPa | - | - | - | - |
| 1787807414 | 15.56° C | 54% | 1013.4 hPa | - | - | - | - |
| 1787806814 | 15.56° C | 52% | 1013.2 hPa | - | - | - | - |
| 1787806214 | 15.56° C | 52% | 1013.2 hPa | - | - | - | - |
| 1787805614 | 15° C | 52% | 1013.3 hPa | - | - | - | - |
| 1787805014 | 15.56° C | 49% | 1013.1 hPa | - | - | - | - |
| 1787804414 | 16.11° C | 48% | 1013 hPa | - | - | - | - |
* Rain since midnight (hover to see other rain measurements)
** Current wind speed in m/s (hover to see current wind gust speed)